« Back
NWS Peachtree City, Ga » Text Product » MCN Terminal Aerodrome Forecast


Printer-friendly Version
Current Version              Previous Versions:   1  2  3  4  5  6  7  8  9  

Terminal Aerodrome Forecast

058
FTUS42 KFFC 160800 AAA
TAFMCN
TAF AMD
KMCN 160848Z 1609/1706 22003KT 5SM BR BKN008
     FM161400 25005KT P6SM VCSH BKN015
     FM161600 30007KT P6SM VCSH SCT025 BKN040
      TEMPO 1616/1620 5SM -TSRA BR BKN025CB
     FM162100 33009KT P6SM SCT050 BKN100
     FM170200 34005KT P6SM SCT120 BKN250=



USA.gov is the U.S. government's official web portal to all federal, state and local government web resources and services.